LFKB Airport Information

Runway Information
Runway 16 Length 8266 ft width 148 ft
Elevation 13 ft Threshold 0 ft Heading 163
Runway 34 Length 8266 ft Width 148 ft
Elevation 26 ft Threshold 0 ft Heading 343
Airport Frequencies
Type AFIS Name BASTIA INF Frequency 124.725 MHZ
Type APP Name BASTIA RAD Frequency 123.825 MHZ
Type ARR Name BASTIA APP Frequency 37.85 MHZ
Type ATIS Name BASTIA ATI Frequency 125.925 MHZ
Type GND Name GND Frequency 121.825 MHZ
Type TWR Name BASTIA TWR Frequency 118 MHZ
Airport Navaids
Type VOR-DME Name Bastia Frequency 114150 KHZ
Airport Weather Information & NOTAM
LFKB 082230Z AUTO VRB01KT CAVOK 20/14 Q1016 NOSIG